Time;durP1;ratioP1;P1;durP2;ratioP2;P2;SDS_P1;SDS_P2;PMS_P1;PMS_P2;Temp;Humidity;BMP_temperature;BMP_pressure;BME280_temperature;BME280_humidity;BME280_pressure;Samples;Min_cycle;Max_cycle;Signal;HPM_P1;HPM_P2
2021/05/28 00:00:41;;;;;;;2.03;1.80;;;;;;;15.57;69.19;100339.44;6315008;22;20002;-75
2021/05/28 00:03:06;;;;;;;3.00;1.63;;;;;;;15.53;70.12;100340.63;6314852;22;20017;-75
2021/05/28 00:05:32;;;;;;;3.13;1.75;;;;;;;15.52;69.65;100344.63;6314675;22;20323;-75
2021/05/28 00:07:57;;;;;;;1.80;1.67;;;;;;;15.64;68.95;100328.28;6314512;22;20091;-75
2021/05/28 00:10:23;;;;;;;3.83;2.30;;;;;;;15.52;69.33;100325.81;6314931;22;20010;-75
2021/05/28 00:12:48;;;;;;;3.58;1.83;;;;;;;15.63;68.72;100332.28;6315342;22;20006;-75
2021/05/28 00:15:15;;;;;;;4.40;1.77;;;;;;;15.44;69.19;100315.72;6342619;22;20003;-75
2021/05/28 00:17:42;;;;;;;2.53;1.80;;;;;;;15.45;69.72;100328.59;6314935;22;20037;-75
2021/05/28 00:20:11;;;;;;;5.68;2.05;;;;;;;15.35;69.05;100318.09;6314335;22;20014;-75
2021/05/28 00:22:37;;;;;;;3.33;1.70;;;;;;;15.16;69.08;100300.38;6314646;22;20334;-75
2021/05/28 00:25:06;;;;;;;2.63;1.50;;;;;;;15.46;68.59;100327.38;6315634;22;20095;-75
2021/05/28 00:27:32;;;;;;;2.88;2.00;;;;;;;15.39;68.57;100327.31;6315928;22;20054;-75
2021/05/28 00:30:01;;;;;;;3.88;1.58;;;;;;;15.31;68.52;100315.28;6316086;22;20003;-75
2021/05/28 00:32:27;;;;;;;4.72;1.92;;;;;;;15.28;68.62;100320.84;6343233;22;20010;-76
2021/05/28 00:34:54;;;;;;;2.47;1.55;;;;;;;15.22;68.99;100326.03;6315343;22;20007;-75
2021/05/28 00:37:20;;;;;;;5.00;2.08;;;;;;;15.23;68.98;100313.63;6342645;22;20003;-74
2021/05/28 00:39:46;;;;;;;2.55;1.60;;;;;;;15.28;69.12;100312.44;6343012;22;20012;-74
2021/05/28 00:42:14;;;;;;;2.85;1.75;;;;;;;15.31;68.62;100318.09;6344188;22;20013;-74
2021/05/28 00:44:40;;;;;;;3.15;1.70;;;;;;;15.25;68.29;100310.44;6316337;22;20430;-74
2021/05/28 00:47:09;;;;;;;6.10;1.60;;;;;;;15.23;68.50;100308.00;6317548;22;20033;-74
2021/05/28 00:49:38;;;;;;;2.33;1.98;;;;;;;15.23;68.43;100312.81;6346946;22;20138;-75
2021/05/28 00:52:04;;;;;;;7.82;2.05;;;;;;;15.15;68.69;100318.38;6347285;22;20002;-74
2021/05/28 00:54:30;;;;;;;2.70;1.70;;;;;;;15.05;68.43;100323.91;6348046;22;20003;-74
2021/05/28 00:56:56;;;;;;;1.48;1.30;;;;;;;14.92;69.10;100299.03;6315941;22;20063;-74
2021/05/28 00:59:24;;;;;;;4.80;1.77;;;;;;;14.92;69.56;100301.03;6314626;22;20002;-76
2021/05/28 01:01:49;;;;;;;2.45;1.80;;;;;;;14.94;69.55;100301.44;6314269;22;20075;-74
2021/05/28 01:04:15;;;;;;;4.22;1.90;;;;;;;14.89;69.89;100310.19;6313473;22;20037;-74
2021/05/28 01:06:43;;;;;;;3.22;1.70;;;;;;;14.92;70.33;100309.44;6313502;22;19999;-75
2021/05/28 01:09:09;;;;;;;4.57;1.90;;;;;;;14.91;70.25;100302.19;6342184;22;20029;-74
2021/05/28 01:11:37;;;;;;;2.38;1.67;;;;;;;14.99;69.82;100303.88;6341714;22;20025;-75
2021/05/28 01:14:03;;;;;;;1.73;1.58;;;;;;;14.91;70.25;100296.59;6314997;22;20036;-74
2021/05/28 01:16:29;;;;;;;2.05;1.30;;;;;;;14.86;70.42;100299.75;6316435;22;20007;-74
2021/05/28 01:18:55;;;;;;;3.60;1.80;;;;;;;14.83;70.72;100297.75;6303226;22;20384;-75
2021/05/28 01:21:21;;;;;;;1.80;1.55;;;;;;;14.91;70.38;100294.63;6283086;22;20034;-75
2021/05/28 01:23:50;;;;;;;5.35;2.15;;;;;;;14.86;70.35;100299.75;6309292;22;19999;-74
2021/05/28 01:26:16;;;;;;;3.33;1.73;;;;;;;14.90;70.42;100292.19;6283451;22;20003;-74
2021/05/28 01:28:41;;;;;;;3.65;1.70;;;;;;;14.82;70.19;100284.94;6281890;22;20014;-75
2021/05/28 01:31:10;;;;;;;3.90;1.80;;;;;;;14.86;70.38;100289.38;6282429;22;20010;-74
2021/05/28 01:33:42;;;;;;;2.88;1.98;;;;;;;14.98;70.09;100295.84;6282914;22;20007;-75
2021/05/28 01:36:08;;;;;;;4.50;2.42;;;;;;;14.88;70.33;100283.38;6283126;22;20019;-74
2021/05/28 01:38:37;;;;;;;4.78;1.92;;;;;;;14.97;70.00;100288.63;6282368;22;20319;-74
2021/05/28 01:41:03;;;;;;;3.03;2.08;;;;;;;14.96;70.48;100281.41;6282153;22;20378;-74
2021/05/28 01:43:32;;;;;;;3.30;1.60;;;;;;;14.90;70.10;100284.59;6310546;22;20419;-74
2021/05/28 01:45:58;;;;;;;3.22;1.80;;;;;;;15.04;70.12;100289.50;6310409;22;20017;-74
2021/05/28 01:48:24;;;;;;;5.32;2.35;;;;;;;14.95;69.92;100280.63;6282872;22;20003;-74
2021/05/28 01:50:52;;;;;;;3.35;1.63;;;;;;;14.87;70.34;100278.97;6283198;22;20061;-75
2021/05/28 01:53:25;;;;;;;5.53;2.10;;;;;;;14.80;70.68;100273.31;6310549;22;19999;-74
2021/05/28 01:55:51;;;;;;;5.45;2.10;;;;;;;14.84;70.84;100288.16;6284097;22;20010;-75
2021/05/28 01:58:20;;;;;;;1.65;1.52;;;;;;;14.87;70.19;100281.78;6284338;22;20011;-74
2021/05/28 02:00:47;;;;;;;3.92;1.55;;;;;;;14.88;70.32;100286.97;6283755;22;20431;-74
2021/05/28 02:03:13;;;;;;;4.57;2.25;;;;;;;14.81;70.96;100280.53;6284236;22;20003;-74
2021/05/28 02:05:39;;;;;;;3.72;1.80;;;;;;;14.76;71.01;100278.91;6311494;22;20035;-74
2021/05/28 02:08:06;;;;;;;2.20;1.80;;;;;;;14.68;70.60;100275.22;6283507;22;20033;-74
2021/05/28 02:10:32;;;;;;;3.03;1.85;;;;;;;14.60;71.09;100281.97;6311785;22;20003;-74
2021/05/28 02:12:58;;;;;;;3.85;1.60;;;;;;;14.52;70.48;100279.50;6284097;22;20082;-74
2021/05/28 02:15:24;;;;;;;5.50;1.48;;;;;;;14.52;70.83;100279.50;6284176;22;20073;-74
2021/05/28 02:17:52;;;;;;;9.43;2.13;;;;;;;14.59;70.18;100274.75;6283960;22;20035;-75
2021/05/28 02:20:18;;;;;;;3.75;1.70;;;;;;;14.63;70.03;100274.78;6339403;22;20011;-74
2021/05/28 02:22:43;;;;;;;4.63;2.00;;;;;;;14.55;70.80;100273.94;6314661;22;20369;-74
2021/05/28 02:25:10;;;;;;;3.45;1.80;;;;;;;14.59;71.20;100285.94;6315126;22;20007;-74
2021/05/28 02:27:38;;;;;;;2.80;1.83;;;;;;;14.75;70.13;100285.66;6289443;22;20058;-74
2021/05/28 02:30:06;;;;;;;2.78;1.90;;;;;;;14.57;70.91;100282.75;6315729;22;20010;-74
2021/05/28 02:32:32;;;;;;;3.67;2.75;;;;;;;14.53;70.98;100270.69;6343132;22;20045;-74
2021/05/28 02:35:04;;;;;;;10.52;9.48;;;;;;;14.48;71.35;100281.47;6315365;22;20003;-75
2021/05/28 02:37:29;;;;;;;24.67;21.63;;;;;;;14.42;71.37;100283.78;6290386;22;20011;-74
2021/05/28 02:39:57;;;;;;;19.23;17.27;;;;;;;14.43;71.03;100302.19;6316011;22;20010;-74
2021/05/28 02:42:23;;;;;;;14.75;13.35;;;;;;;14.38;71.41;100297.75;6343912;22;19998;-74
2021/05/28 02:44:48;;;;;;;16.58;14.95;;;;;;;14.32;71.57;100298.47;6316115;22;20007;-74
2021/05/28 02:47:17;;;;;;;18.48;14.23;;;;;;;14.30;72.21;100301.66;6342986;22;20489;-74
2021/05/28 02:49:43;;;;;;;8.45;7.30;;;;;;;14.41;71.80;100299.78;6342988;22;20070;-74
2021/05/28 02:52:08;;;;;;;9.15;8.25;;;;;;;14.42;71.39;100308.97;6315986;22;20430;-74
2021/05/28 02:54:34;;;;;;;9.07;8.18;;;;;;;14.31;72.25;100303.28;6317230;22;20037;-74
2021/05/28 02:57:02;;;;;;;11.18;10.00;;;;;;;14.38;71.66;100299.72;6344336;22;20003;-74
2021/05/28 02:59:28;;;;;;;6.25;5.65;;;;;;;14.45;71.66;100290.63;6316961;22;20010;-74
2021/05/28 03:01:53;;;;;;;6.45;5.75;;;;;;;14.35;71.43;100297.72;6344890;22;20003;-74
2021/05/28 03:04:19;;;;;;;13.75;12.32;;;;;;;14.28;71.52;100295.66;6318493;22;20003;-74
2021/05/28 03:06:44;;;;;;;10.45;7.78;;;;;;;14.33;70.63;100300.13;6346531;22;20007;-74
2021/05/28 03:09:10;;;;;;;4.60;4.03;;;;;;;14.27;70.02;100298.81;6320773;22;20007;-74
2021/05/28 03:11:36;;;;;;;6.40;5.57;;;;;;;14.28;69.40;100290.06;6347399;22;20445;-74
2021/05/28 03:14:02;;;;;;;11.05;5.90;;;;;;;14.24;69.51;100294.81;6318139;22;20086;-74
2021/05/28 03:16:27;;;;;;;6.57;5.97;;;;;;;14.15;68.89;100295.13;6314848;22;20006;-74
2021/05/28 03:18:56;;;;;;;10.63;9.43;;;;;;;14.11;68.87;100294.31;6343220;22;20010;-74
2021/05/28 03:22:31;;;;;;;11.25;10.05;;;;;;;14.12;68.76;100293.09;6342242;22;19995;-74
2021/05/28 03:24:12;;;;;;;12.30;11.07;;;;;;;14.20;67.13;100291.19;6337634;22;20011;-74
2021/05/28 03:26:40;;;;;;;11.15;8.90;;;;;;;14.17;66.70;100297.56;6313613;22;20037;-75
2021/05/28 03:29:07;;;;;;;8.93;7.22;;;;;;;14.14;66.44;100287.94;6342091;22;20073;-74
2021/05/28 03:31:32;;;;;;;5.57;5.00;;;;;;;14.21;66.57;100308.78;6314903;22;20017;-75
2021/05/28 03:34:03;;;;;;;4.75;4.20;;;;;;;14.34;66.35;100307.31;6314384;22;20030;-75
2021/05/28 03:36:28;;;;;;;4.75;2.47;;;;;;;14.24;66.38;100296.81;6342825;22;20059;-75
2021/05/28 03:38:56;;;;;;;4.80;2.80;;;;;;;14.27;67.36;100318.41;6314761;22;20011;-75
2021/05/28 03:41:22;;;;;;;9.38;6.35;;;;;;;14.30;67.40;100317.66;6342409;22;20007;-75
2021/05/28 03:43:47;;;;;;;14.18;6.93;;;;;;;14.32;67.34;100316.06;6341040;22;20003;-75
2021/05/28 03:46:13;;;;;;;13.82;6.93;;;;;;;14.38;66.81;100327.72;6314429;22;20007;-75
2021/05/28 03:48:39;;;;;;;9.00;5.45;;;;;;;14.40;66.70;100320.56;6341792;22;20039;-75
2021/05/28 03:51:06;;;;;;;6.55;3.67;;;;;;;14.50;65.96;100327.50;6312921;22;20035;-75
2021/05/28 03:53:32;;;;;;;5.30;2.95;;;;;;;14.47;65.35;100328.25;6313182;22;20418;-75
2021/05/28 03:55:57;;;;;;;3.28;2.65;;;;;;;14.34;64.86;100310.91;6313769;22;20006;-75
2021/05/28 03:58:23;;;;;;;4.45;3.53;;;;;;;14.36;65.06;100313.31;6313688;22;20068;-75
2021/05/28 04:00:49;;;;;;;7.68;5.90;;;;;;;14.49;64.84;100336.25;6340616;22;20007;-75
2021/05/28 04:03:14;;;;;;;6.53;5.65;;;;;;;14.59;64.20;100327.16;6312829;22;20003;-75
2021/05/28 04:05:41;;;;;;;3.72;3.42;;;;;;;15.16;61.80;100334.00;6312971;22;19999;-75
2021/05/28 04:08:07;;;;;;;5.38;2.53;;;;;;;15.68;59.93;100333.94;6340523;22;19999;-75
2021/05/28 04:10:34;;;;;;;5.53;1.90;;;;;;;16.22;57.75;100338.50;6340518;22;20007;-75
2021/05/28 04:13:00;;;;;;;3.85;1.58;;;;;;;16.67;56.33;100333.38;6312951;22;20057;-75
2021/05/28 04:15:25;;;;;;;4.18;1.65;;;;;;;17.11;54.56;100340.59;6312672;22;20422;-75
2021/05/28 04:17:51;;;;;;;1.35;1.20;;;;;;;17.61;53.42;100345.31;6312500;22;20060;-75
2021/05/28 04:20:17;;;;;;;2.28;1.25;;;;;;;18.10;52.08;100343.50;6339642;22;20034;-75
2021/05/28 04:22:44;;;;;;;4.28;1.67;;;;;;;18.57;50.75;100353.28;6340150;22;20454;-75
2021/05/28 04:25:17;;;;;;;3.40;1.40;;;;;;;19.13;49.38;100358.94;6314401;22;20003;-75
2021/05/28 04:27:42;;;;;;;1.45;1.35;;;;;;;19.60;48.20;100354.41;6342766;22;19999;-75
2021/05/28 04:30:12;;;;;;;2.25;1.63;;;;;;;20.02;46.89;100353.09;6342183;22;20010;-75
2021/05/28 04:32:37;;;;;;;2.35;1.40;;;;;;;20.36;45.96;100350.22;6341886;22;20002;-75
2021/05/28 04:35:03;;;;;;;2.13;1.25;;;;;;;20.68;45.88;100363.09;6341655;22;20082;-75
2021/05/28 04:37:29;;;;;;;3.15;1.40;;;;;;;21.08;45.12;100360.41;6313907;22;20011;-76
2021/05/28 04:39:58;;;;;;;3.28;1.80;;;;;;;21.41;44.26;100365.13;6341659;22;20003;-76
2021/05/28 04:42:23;;;;;;;2.47;1.20;;;;;;;21.75;43.71;100374.59;6311553;22;20060;-75
2021/05/28 04:44:49;;;;;;;2.33;1.20;;;;;;;21.96;42.82;100374.16;6312039;22;20007;-77
2021/05/28 04:47:14;;;;;;;2.40;1.60;;;;;;;22.27;43.31;100377.56;6311363;22;20075;-76
2021/05/28 04:49:40;;;;;;;4.10;1.88;;;;;;;22.47;42.57;100369.00;6310646;22;20060;-76
2021/05/28 04:52:05;;;;;;;4.18;1.48;;;;;;;22.85;42.96;100375.00;6338553;22;20361;-76
2021/05/28 04:54:32;;;;;;;4.35;1.75;;;;;;;22.46;44.49;100379.53;6310829;22;20414;-77
2021/05/28 04:56:58;;;;;;;2.25;1.52;;;;;;;22.21;44.50;100377.28;6339069;22;20010;-78
2021/05/28 04:59:23;;;;;;;3.42;2.00;;;;;;;22.20;45.13;100377.72;6339085;22;20003;-76
2021/05/28 05:01:49;;;;;;;5.82;2.03;;;;;;;21.91;44.92;100377.50;6312186;22;20410;-76
2021/05/28 05:04:14;;;;;;;7.13;4.10;;;;;;;21.56;45.56;100364.81;6315144;22;20025;-76
2021/05/28 05:06:40;;;;;;;8.88;2.75;;;;;;;21.85;44.05;100371.53;6315007;22;20006;-76
2021/05/28 05:09:05;;;;;;;5.18;2.63;;;;;;;21.81;44.88;100373.63;6316698;22;19998;-77
2021/05/28 05:11:31;;;;;;;7.53;2.63;;;;;;;21.49;45.00;100370.63;6316577;22;20006;-76
2021/05/28 05:13:57;;;;;;;3.97;2.97;;;;;;;21.48;45.94;100366.22;6344133;22;20024;-77
2021/05/28 05:16:22;;;;;;;6.03;1.80;;;;;;;21.41;46.36;100369.94;6343255;22;20003;-77
2021/05/28 05:18:48;;;;;;;2.00;1.67;;;;;;;21.34;45.92;100375.75;6312986;22;20442;-77
2021/05/28 05:21:14;;;;;;;4.03;1.77;;;;;;;21.83;45.22;100371.16;6343696;22;20006;-76
2021/05/28 05:23:40;;;;;;;4.32;2.28;;;;;;;22.34;44.23;100373.78;6316744;22;20086;-76
2021/05/28 05:26:07;;;;;;;3.10;1.83;;;;;;;22.51;43.20;100374.59;6344580;22;20011;-76
2021/05/28 05:28:33;;;;;;;3.33;1.77;;;;;;;22.67;42.35;100385.97;6339893;22;20002;-76
2021/05/28 05:30:59;;;;;;;3.83;1.80;;;;;;;22.59;42.52;100382.50;6313603;22;20101;-77
2021/05/28 05:33:24;;;;;;;3.35;1.50;;;;;;;22.72;41.44;100385.44;6313517;22;20117;-76
2021/05/28 05:35:50;;;;;;;5.22;1.88;;;;;;;22.75;41.25;100378.91;6341705;22;20498;-76
2021/05/28 05:38:18;;;;;;;7.60;4.60;;;;;;;22.97;40.93;100402.69;6314285;22;20007;-77
2021/05/28 05:40:44;;;;;;;11.50;5.85;;;;;;;23.37;40.33;100401.69;6340463;22;20003;-76
2021/05/28 05:43:10;;;;;;;10.90;6.38;;;;;;;23.39;40.66;100405.69;6341587;22;19998;-76
2021/05/28 05:45:36;;;;;;;8.52;4.15;;;;;;;22.68;42.56;100401.75;6312985;22;20068;-76
2021/05/28 05:48:02;;;;;;;8.45;4.43;;;;;;;23.61;40.22;100410.81;6313551;22;19998;-76
2021/05/28 05:50:30;;;;;;;8.10;4.13;;;;;;;23.56;41.26;100409.31;6313595;22;20007;-76
2021/05/28 05:52:56;;;;;;;10.13;7.35;;;;;;;24.57;38.92;100413.75;6312760;22;20010;-76
2021/05/28 05:55:23;;;;;;;9.70;4.85;;;;;;;24.85;39.16;100416.94;6340449;22;20003;-76
2021/05/28 05:57:49;;;;;;;8.38;4.03;;;;;;;25.75;37.30;100424.13;6312739;22;20013;-76
2021/05/28 06:00:15;;;;;;;4.22;2.97;;;;;;;25.68;36.93;100418.66;6339998;22;20022;-77
2021/05/28 06:02:40;;;;;;;4.13;2.00;;;;;;;25.71;37.50;100427.06;6312750;22;20011;-76
2021/05/28 06:05:06;;;;;;;2.67;1.90;;;;;;;25.87;37.17;100428.97;6340289;22;20153;-77
2021/05/28 06:07:32;;;;;;;3.30;1.98;;;;;;;26.44;36.46;100426.06;6339716;22;20441;-78
2021/05/28 06:09:58;;;;;;;3.50;1.90;;;;;;;25.56;38.38;100428.81;6313009;22;20098;-78
2021/05/28 06:12:24;;;;;;;2.97;1.63;;;;;;;26.36;36.63;100436.91;6312833;22;20361;-76
2021/05/28 06:14:49;;;;;;;3.53;1.73;;;;;;;26.30;36.85;100430.22;6312503;22;20011;-76
2021/05/28 06:17:15;;;;;;;3.65;1.60;;;;;;;26.17;36.48;100430.31;6312766;22;20032;-76
2021/05/28 06:19:40;;;;;;;3.70;1.45;;;;;;;25.84;36.62;100418.50;6339450;22;20021;-75
2021/05/28 06:22:06;;;;;;;4.50;1.90;;;;;;;25.88;37.53;100424.06;6312648;22;20007;-75
2021/05/28 06:24:31;;;;;;;3.20;1.77;;;;;;;24.09;40.78;100417.63;6340151;22;20010;-75
2021/05/28 06:26:57;;;;;;;5.05;1.67;;;;;;;24.32;40.59;100420.16;6340990;22;20014;-75
2021/05/28 06:29:23;;;;;;;2.42;1.60;;;;;;;25.00;38.79;100423.78;6316038;22;20007;-77
2021/05/28 06:31:48;;;;;;;3.03;2.20;;;;;;;24.67;39.18;100423.22;6312499;22;20017;-75
2021/05/28 06:34:14;;;;;;;5.70;1.70;;;;;;;24.21;40.16;100422.53;6339185;22;20003;-75
2021/05/28 06:36:42;;;;;;;1.80;1.30;;;;;;;24.68;39.79;100411.38;6312117;22;20015;-76
2021/05/28 06:39:10;;;;;;;4.45;1.70;;;;;;;24.51;39.66;100413.53;6312492;22;20002;-75
2021/05/28 06:41:36;;;;;;;3.60;1.77;;;;;;;24.34;41.17;100414.00;6312439;22;20007;-75
2021/05/28 06:44:02;;;;;;;6.03;2.30;;;;;;;23.08;45.77;100416.63;6340076;22;20051;-75
2021/05/28 06:46:28;;;;;;;5.93;2.60;;;;;;;23.36;45.59;100415.09;6313800;22;20165;-75
2021/05/28 06:48:55;;;;;;;8.10;2.85;;;;;;;23.74;44.89;100411.69;6340324;22;20082;-75
2021/05/28 06:51:21;;;;;;;5.95;2.72;;;;;;;23.80;43.40;100415.56;6313333;22;20077;-75
2021/05/28 06:53:46;;;;;;;6.60;2.50;;;;;;;23.51;44.57;100407.78;6341136;22;20010;-75
2021/05/28 06:56:12;;;;;;;5.63;2.65;;;;;;;24.63;41.92;100414.78;6339280;22;19999;-75
2021/05/28 06:58:38;;;;;;;5.15;2.30;;;;;;;24.88;40.64;100416.84;6311336;22;20402;-75
2021/05/28 07:01:03;;;;;;;9.90;2.70;;;;;;;25.15;40.92;100412.75;6311351;22;20028;-75
2021/05/28 07:03:29;;;;;;;5.18;2.88;;;;;;;25.95;39.63;100413.19;6339974;22;20179;-75
2021/05/28 07:05:55;;;;;;;4.65;2.40;;;;;;;26.22;38.66;100408.97;6312635;22;20080;-75
2021/05/28 07:08:21;;;;;;;5.75;2.92;;;;;;;25.50;40.14;100405.81;6311743;22;20085;-75
2021/05/28 07:10:46;;;;;;;6.68;2.67;;;;;;;25.37;40.05;100393.69;6311630;22;20026;-75
2021/05/28 07:13:12;;;;;;;6.00;3.08;;;;;;;25.98;39.95;100398.00;6312008;22;20006;-76
2021/05/28 07:15:38;;;;;;;4.97;2.28;;;;;;;26.37;38.74;100404.31;6311549;22;20312;-76
2021/05/28 07:18:06;;;;;;;5.38;2.40;;;;;;;26.96;37.58;100390.16;6311670;22;19998;-75
2021/05/28 07:20:32;;;;;;;5.53;2.70;;;;;;;27.32;36.42;100398.81;6280845;22;20038;-76
2021/05/28 07:22:57;;;;;;;8.98;2.45;;;;;;;27.83;36.41;100392.53;6308294;22;20426;-75
2021/05/28 07:25:23;;;;;;;4.00;2.05;;;;;;;28.10;35.59;100406.00;6281319;22;20011;-75
2021/05/28 07:27:48;;;;;;;4.30;2.00;;;;;;;27.84;36.28;100410.47;6281767;22;20011;-76
2021/05/28 07:30:14;;;;;;;6.25;2.40;;;;;;;28.10;35.58;100408.09;6309279;22;20026;-75
2021/05/28 07:32:40;;;;;;;9.80;2.70;;;;;;;27.94;35.96;100412.06;6285127;22;20053;-76
2021/05/28 07:35:08;;;;;;;4.60;2.28;;;;;;;28.36;34.32;100397.09;6283958;22;20007;-76
2021/05/28 07:37:35;;;;;;;4.35;2.08;;;;;;;29.38;33.00;100412.56;6308383;22;20011;-76
2021/05/28 07:40:05;;;;;;;3.80;2.28;;;;;;;29.60;31.67;100401.59;6281517;22;20026;-76
2021/05/28 07:42:30;;;;;;;3.70;2.13;;;;;;;28.78;32.23;100413.50;6308332;22;20026;-76
2021/05/28 07:44:56;;;;;;;4.97;1.88;;;;;;;28.91;32.43;100412.00;6308082;22;20380;-76
2021/05/28 07:47:22;;;;;;;6.80;2.92;;;;;;;28.86;33.36;100420.44;6308450;22;20011;-76
2021/05/28 07:49:48;;;;;;;3.53;2.40;;;;;;;29.12;33.42;100415.88;6308315;22;20015;-76
2021/05/28 07:52:13;;;;;;;6.00;2.75;;;;;;;29.54;33.01;100417.88;6280830;22;20011;-75
2021/05/28 07:54:39;;;;;;;6.28;2.67;;;;;;;29.36;33.31;100429.47;6280475;22;20019;-77
2021/05/28 07:57:06;;;;;;;6.00;2.90;;;;;;;29.20;33.01;100425.72;6280982;22;20039;-76
2021/05/28 07:59:35;;;;;;;4.60;2.53;;;;;;;28.68;35.38;100422.13;6280977;22;20003;-76
2021/05/28 08:02:00;;;;;;;4.22;1.95;;;;;;;27.25;38.70;100430.56;6280562;22;20060;-76
2021/05/28 08:04:26;;;;;;;3.85;2.30;;;;;;;27.51;38.43;100431.09;6280663;22;20011;-76
2021/05/28 08:06:52;;;;;;;1.95;1.50;;;;;;;28.44;34.85;100424.09;6280323;22;20007;-76
2021/05/28 08:09:17;;;;;;;4.30;1.77;;;;;;;27.82;33.21;100413.81;6280720;22;20004;-76
2021/05/28 08:11:43;;;;;;;4.20;1.63;;;;;;;27.39;34.15;100401.38;6280744;22;20007;-76
2021/05/28 08:14:09;;;;;;;3.00;1.60;;;;;;;28.02;33.86;100423.97;6280313;22;20067;-76
2021/05/28 08:16:35;;;;;;;4.82;1.60;;;;;;;27.63;35.39;100427.28;6280231;22;20053;-76
2021/05/28 08:19:01;;;;;;;3.60;1.95;;;;;;;27.74;35.67;100428.91;6279891;22;20019;-76
2021/05/28 08:21:27;;;;;;;4.72;1.83;;;;;;;28.26;35.07;100429.84;6281350;22;20426;-76
2021/05/28 08:23:52;;;;;;;3.30;1.67;;;;;;;28.94;33.73;100436.03;6281305;22;20056;-76
2021/05/28 08:26:18;;;;;;;6.40;2.17;;;;;;;29.99;31.60;100428.22;6280317;22;20015;-76
2021/05/28 08:28:44;;;;;;;8.70;1.85;;;;;;;29.57;32.33;100444.81;6307473;22;20003;-77
2021/05/28 08:31:10;;;;;;;3.47;1.95;;;;;;;28.66;34.62;100447.59;6280300;22;20007;-76
2021/05/28 08:33:42;;;;;;;4.40;1.60;;;;;;;28.06;36.17;100445.41;6280352;22;20007;-76
2021/05/28 08:36:08;;;;;;;5.50;1.50;;;;;;;28.59;35.39;100436.44;6280243;22;20419;-76
2021/05/28 08:38:33;;;;;;;3.60;1.50;;;;;;;28.06;36.49;100451.13;6280336;22;20134;-76
2021/05/28 08:40:59;;;;;;;5.22;1.65;;;;;;;27.88;37.01;100448.28;6280349;22;20018;-76
2021/05/28 08:43:25;;;;;;;4.60;1.50;;;;;;;27.63;38.09;100447.28;6280277;22;20335;-75
2021/05/28 08:45:51;;;;;;;4.07;1.90;;;;;;;27.53;38.08;100457.13;6307369;22;20432;-75
2021/05/28 08:48:19;;;;;;;4.82;1.88;;;;;;;27.66;37.77;100457.78;6307412;22;20026;-74
2021/05/28 08:50:47;;;;;;;5.93;1.98;;;;;;;27.91;37.78;100455.91;6280316;22;20010;-75
2021/05/28 08:53:15;;;;;;;2.58;1.98;;;;;;;28.16;36.73;100449.06;6307838;22;20000;-75
2021/05/28 08:55:42;;;;;;;3.50;1.80;;;;;;;28.81;34.67;100461.97;6307237;22;20103;-75
2021/05/28 08:58:10;;;;;;;3.33;1.70;;;;;;;28.23;35.99;100450.81;6307613;22;20981;-75
2021/05/28 09:00:36;;;;;;;3.22;1.90;;;;;;;27.92;36.20;100454.66;6307442;22;20074;-75
2021/05/28 09:03:26;;;;;;;7.40;1.98;;;;;;;27.73;35.94;100453.84;6280067;22;20041;-75
2021/05/28 09:05:54;;;;;;;3.25;1.90;;;;;;;28.24;35.02;100461.00;6288141;22;20495;-75
2021/05/28 09:08:38;;;;;;;3.00;1.90;;;;;;;28.57;34.50;100450.47;6280166;22;20027;-75
2021/05/28 09:11:09;;;;;;;8.13;1.92;;;;;;;28.84;34.21;100457.38;6307197;22;20003;-75
2021/05/28 09:14:00;;;;;;;3.75;1.70;;;;;;;29.02;33.79;100451.59;6280519;22;20319;-75
2021/05/28 09:16:27;;;;;;;5.47;2.25;;;;;;;29.13;34.18;100457.56;6307217;22;20031;-75
2021/05/28 09:19:00;;;;;;;4.10;1.58;;;;;;;28.84;35.38;100445.91;6279599;22;20115;-76
2021/05/28 09:21:34;;;;;;;;;;;;;;;28.38;36.37;100449.69;6280621;22;20012;-75
2021/05/28 09:24:03;;;;;;;;;;;;;;;28.29;37.18;100448.91;6307586;22;19993;-75
2021/05/28 09:26:31;;;;;;;7.80;2.20;;;;;;;27.71;37.34;100447.03;6280055;22;19934;-75
2021/05/28 09:28:58;;;;;;;3.88;1.52;;;;;;;27.58;37.52;100433.63;6279967;22;20007;-76
2021/05/28 09:31:32;;;;;;;3.92;1.55;;;;;;;27.72;37.71;100440.81;6280227;22;20014;-75
2021/05/28 09:33:58;;;;;;;5.60;2.38;;;;;;;27.90;38.09;100432.25;6282093;22;20015;-76
2021/05/28 09:36:28;;;;;;;3.67;1.67;;;;;;;28.37;36.03;100435.88;6287121;22;20086;-75
2021/05/28 09:39:16;;;;;;;2.40;1.70;;;;;;;28.26;36.17;100433.47;6283610;22;20018;-75
2021/05/28 09:42:00;;;;;;;2.97;1.63;;;;;;;28.45;35.67;100440.00;6307392;22;20015;-75
2021/05/28 09:44:29;;;;;;;3.35;1.85;;;;;;;28.93;34.29;100432.41;6280171;22;20007;-75
2021/05/28 09:46:57;;;;;;;4.07;1.90;;;;;;;28.66;35.15;100426.75;6307430;22;20450;-75
2021/05/28 09:49:29;;;;;;;4.72;2.50;;;;;;;28.44;36.16;100432.66;6307396;22;20003;-75
2021/05/28 09:52:07;;;;;;;2.90;1.77;;;;;;;27.79;36.47;100431.13;6280123;22;20313;-74
2021/05/28 09:54:32;;;;;;;4.15;1.85;;;;;;;27.64;37.50;100426.00;6307202;22;20054;-75
2021/05/28 09:56:58;;;;;;;4.22;2.05;;;;;;;27.71;36.87;100418.44;6307191;22;20025;-76
2021/05/28 09:59:24;;;;;;;2.78;1.73;;;;;;;27.38;37.83;100416.94;6279750;22;20007;-75
2021/05/28 10:01:59;;;;;;;5.50;2.00;;;;;;;27.27;37.32;100412.94;6279854;22;20038;-75
2021/05/28 10:04:25;;;;;;;2.67;1.85;;;;;;;27.73;36.83;100413.03;6280112;22;20007;-75
2021/05/28 10:06:51;;;;;;;5.03;1.70;;;;;;;28.13;35.04;100416.50;6280303;22;20008;-76
2021/05/28 10:09:17;;;;;;;5.65;2.05;;;;;;;27.98;35.47;100411.91;6279660;22;20082;-75
2021/05/28 10:11:45;;;;;;;5.25;2.00;;;;;;;27.69;35.27;100404.56;6307127;22;20377;-75
2021/05/28 10:14:11;;;;;;;2.03;1.75;;;;;;;27.50;35.69;100386.63;6307140;22;20052;-76
2021/05/28 10:16:37;;;;;;;3.60;2.03;;;;;;;27.26;36.20;100402.78;6308733;22;20066;-75
2021/05/28 10:19:04;;;;;;;4.93;2.20;;;;;;;27.90;35.62;100394.28;6295138;22;20042;-75
2021/05/28 10:21:33;;;;;;;4.13;1.80;;;;;;;28.56;34.81;100397.34;6308967;22;20082;-75
2021/05/28 10:23:59;;;;;;;1.90;1.58;;;;;;;28.74;34.59;100384.25;6313290;22;20327;-76
2021/05/28 10:26:35;;;;;;;3.38;1.85;;;;;;;29.63;32.97;100394.88;6312762;22;19998;-75
2021/05/28 10:29:02;;;;;;;4.38;2.00;;;;;;;29.64;32.69;100387.09;6340752;22;20037;-76
2021/05/28 10:31:51;;;;;;;3.80;1.90;;;;;;;29.72;32.36;100386.22;6316659;22;20013;-76
2021/05/28 10:34:16;;;;;;;5.05;2.13;;;;;;;28.52;33.65;100379.56;6340198;22;19999;-79
2021/05/28 10:36:46;;;;;;;2.97;2.08;;;;;;;28.20;35.06;100381.06;6312800;22;20037;-75
2021/05/28 10:39:13;;;;;;;3.50;1.95;;;;;;;28.32;34.02;100382.13;6287534;22;20366;-75
2021/05/28 10:41:41;;;;;;;3.55;2.35;;;;;;;28.03;34.44;100371.25;6312376;22;20010;-75
2021/05/28 10:44:09;;;;;;;4.65;2.17;;;;;;;27.49;35.51;100375.69;6312574;22;20056;-75
2021/05/28 10:46:36;;;;;;;7.22;2.80;;;;;;;27.27;36.13;100372.94;6313258;22;20017;-75
2021/05/28 10:49:04;;;;;;;7.28;2.65;;;;;;;27.21;36.39;100371.97;6339650;22;20006;-75
2021/05/28 10:51:29;;;;;;;4.85;2.30;;;;;;;27.83;35.57;100368.88;6339755;22;20003;-75
2021/05/28 10:53:55;;;;;;;4.82;2.83;;;;;;;27.58;35.74;100370.75;6340285;22;20010;-74
2021/05/28 10:56:35;;;;;;;5.90;4.00;;;;;;;28.24;35.59;100370.25;6340959;22;20003;-75
2021/05/28 10:59:14;;;;;;;5.55;3.50;;;;;;;28.43;34.54;100362.41;6313225;22;20006;-76
2021/05/28 11:01:47;;;;;;;3.63;2.75;;;;;;;28.40;34.71;100354.81;6312755;22;20082;-75
2021/05/28 11:04:23;;;;;;;4.20;2.60;;;;;;;28.19;35.49;100365.97;6312557;22;20030;-74
2021/05/28 11:06:58;;;;;;;6.10;3.00;;;;;;;27.99;35.20;100362.81;6312892;22;20006;-75
2021/05/28 11:09:45;;;;;;;5.43;2.70;;;;;;;28.23;35.13;100362.13;6312316;22;20144;-76
2021/05/28 11:12:36;;;;;;;4.03;2.20;;;;;;;28.67;35.50;100356.75;6313027;22;20007;-76
2021/05/28 11:15:15;;;;;;;3.97;1.75;;;;;;;29.06;36.00;100354.03;6312060;22;20331;-75
2021/05/28 11:17:57;;;;;;;3.17;1.83;;;;;;;29.14;35.96;100356.06;6312313;22;20011;-76
2021/05/28 11:20:30;;;;;;;3.88;1.92;;;;;;;28.38;37.46;100345.91;6282123;22;20462;-76
2021/05/28 11:22:57;;;;;;;4.80;1.88;;;;;;;29.21;36.43;100344.22;6281225;22;20041;-76
2021/05/28 11:25:28;;;;;;;6.53;2.17;;;;;;;29.68;35.85;100344.69;6281467;22;20003;-76